Time;durP1;ratioP1;P1;durP2;ratioP2;P2;SDS_P1;SDS_P2;PMS_P1;PMS_P2;Temp;Humidity;BMP_temperature;BMP_pressure;BME280_temperature;BME280_humidity;BME280_pressure;Samples;Min_cycle;Max_cycle;Signal;HPM_P1;HPM_P2
2023/03/18 00:01:45;;;;;;;2.55;2.20;;;5.90;71.80;;;;;;5029091;28;20217;-85
2023/03/18 00:04:13;;;;;;;2.72;2.45;;;5.80;71.90;;;;;;5032799;28;20218;-85
2023/03/18 00:06:42;;;;;;;3.60;2.60;;;5.80;72.00;;;;;;5033309;28;20256;-79
2023/03/18 00:09:12;;;;;;;2.33;1.80;;;5.80;72.20;;;;;;5034064;28;20279;-79
2023/03/18 00:11:42;;;;;;;1.95;1.85;;;5.80;72.50;;;;;;5033675;28;20222;-80
2023/03/18 00:14:10;;;;;;;2.40;2.20;;;5.70;73.30;;;;;;5033511;28;20214;-85
2023/03/18 00:16:39;;;;;;;2.78;2.58;;;5.70;72.90;;;;;;5034052;28;20210;-85
2023/03/18 00:19:07;;;;;;;4.18;2.75;;;5.70;73.50;;;;;;5033998;28;20218;-85
2023/03/18 00:21:35;;;;;;;2.90;2.67;;;5.60;73.10;;;;;;5034085;28;20285;-85
2023/03/18 00:24:04;;;;;;;9.88;2.47;;;5.60;73.10;;;;;;5033343;28;20206;-85
2023/03/18 00:26:33;;;;;;;4.20;2.50;;;5.60;73.30;;;;;;5033722;28;20222;-86
2023/03/18 00:29:03;;;;;;;3.72;2.95;;;5.60;73.90;;;;;;5033340;28;20240;-85
2023/03/18 00:31:31;;;;;;;3.75;2.95;;;5.50;73.80;;;;;;5033507;28;20268;-86
2023/03/18 00:34:00;;;;;;;4.63;2.72;;;5.50;73.80;;;;;;5033552;28;20218;-80
2023/03/18 00:36:29;;;;;;;5.07;2.88;;;5.50;74.00;;;;;;5033318;28;20206;-80
2023/03/18 00:38:58;;;;;;;2.63;2.33;;;5.50;74.10;;;;;;5031774;28;20237;-85
2023/03/18 00:41:28;;;;;;;2.90;2.15;;;5.50;74.40;;;;;;5033304;28;20238;-78
2023/03/18 00:43:57;;;;;;;3.92;2.92;;;5.40;74.30;;;;;;5033659;28;20289;-85
2023/03/18 00:46:29;;;;;;;7.18;3.60;;;5.40;75.10;;;;;;5033576;28;20211;-79
2023/03/18 00:49:00;;;;;;;7.43;3.00;;;5.40;74.70;;;;;;5033041;28;20272;-78
2023/03/18 00:51:30;;;;;;;2.83;2.42;;;5.40;75.10;;;;;;5033628;28;20321;-85
2023/03/18 00:54:00;;;;;;;2.83;2.63;;;5.40;74.70;;;;;;5033390;28;20218;-85
2023/03/18 00:56:31;;;;;;;4.13;3.08;;;5.40;75.10;;;;;;5033570;28;20236;-79
2023/03/18 00:59:00;;;;;;;2.85;2.38;;;5.30;75.00;;;;;;5032834;28;20206;-79
2023/03/18 01:01:30;;;;;;;26.02;3.00;;;5.30;75.80;;;;;;5032931;28;20240;-79
2023/03/18 01:03:58;;;;;;;2.95;2.72;;;5.30;76.30;;;;;;5033080;28;20281;-79
2023/03/18 01:06:29;;;;;;;2.70;2.50;;;5.30;75.50;;;;;;5034520;28;20210;-79
2023/03/18 01:09:00;;;;;;;2.97;2.53;;;5.30;75.70;;;;;;5034977;28;20246;-79
2023/03/18 01:11:29;;;;;;;3.15;2.83;;;5.30;75.70;;;;;;5035222;28;20230;-80
2023/03/18 01:13:58;;;;;;;4.25;3.05;;;5.30;76.30;;;;;;5035363;28;20202;-79
2023/03/18 01:16:27;;;;;;;4.38;3.28;;;5.30;75.80;;;;;;5035232;28;20238;-79
2023/03/18 01:18:57;;;;;;;3.05;2.70;;;5.30;75.80;;;;;;5034519;28;20230;-79
2023/03/18 01:21:25;;;;;;;3.35;2.92;;;5.30;76.00;;;;;;5034536;28;20325;-78
2023/03/18 01:23:54;;;;;;;2.78;2.58;;;5.20;75.70;;;;;;5034977;28;20252;-78
2023/03/18 01:26:24;;;;;;;2.78;2.58;;;5.30;76.10;;;;;;5035354;28;20285;-85
2023/03/18 01:28:53;;;;;;;6.97;3.00;;;5.20;76.40;;;;;;5034210;28;20220;-85
2023/03/18 01:31:23;;;;;;;3.67;2.88;;;5.20;76.20;;;;;;5034222;28;20230;-79
2023/03/18 01:33:51;;;;;;;13.02;3.47;;;5.20;76.10;;;;;;5035028;28;20222;-79
2023/03/18 01:36:21;;;;;;;4.38;3.35;;;5.20;76.40;;;;;;5034912;28;20214;-79
2023/03/18 01:38:49;;;;;;;3.47;2.67;;;5.20;76.30;;;;;;5034571;28;20214;-79
2023/03/18 01:41:18;;;;;;;2.60;2.40;;;5.20;76.40;;;;;;5034387;28;20230;-84
2023/03/18 01:43:46;;;;;;;2.70;2.50;;;5.20;76.60;;;;;;5035154;28;20289;-85
2023/03/18 01:46:36;;;;;;;4.18;3.00;;;5.20;76.70;;;;;;5034799;28;20206;-84
2023/03/18 01:49:09;;;;;;;3.55;2.78;;;5.10;76.50;;;;;;5034065;28;20302;-84
2023/03/18 01:51:41;;;;;;;2.35;2.20;;;5.10;76.90;;;;;;5034432;28;20218;-84
2023/03/18 01:54:11;;;;;;;3.95;2.40;;;5.10;76.80;;;;;;5035350;28;20206;-85
2023/03/18 01:56:41;;;;;;;2.58;2.25;;;5.10;76.60;;;;;;5034612;28;20212;-85
2023/03/18 01:59:11;;;;;;;3.08;2.67;;;5.10;76.80;;;;;;5034552;28;20210;-86
2023/03/18 02:01:43;;;;;;;4.85;2.63;;;5.10;76.80;;;;;;5033762;28;20261;-85
2023/03/18 02:04:12;;;;;;;2.25;2.03;;;5.10;76.70;;;;;;5034364;28;20222;-85
2023/03/18 02:06:42;;;;;;;3.20;2.30;;;5.10;76.50;;;;;;5033920;28;20199;-85
2023/03/18 02:09:12;;;;;;;4.18;2.53;;;5.10;76.70;;;;;;5034070;28;20297;-85
2023/03/18 02:11:45;;;;;;;3.88;3.17;;;5.10;76.40;;;;;;5034155;28;20305;-85
2023/03/18 02:14:18;;;;;;;10.57;2.33;;;5.10;76.50;;;;;;5034133;28;20249;-85
2023/03/18 02:16:50;;;;;;;2.67;2.47;;;5.10;76.50;;;;;;5033834;28;20215;-79
2023/03/18 02:19:31;;;;;;;5.28;3.22;;;5.10;76.80;;;;;;5034211;28;20214;-78
2023/03/18 02:22:09;;;;;;;2.58;2.38;;;5.10;76.80;;;;;;5034182;28;20238;-79
2023/03/18 02:24:48;;;;;;;5.78;3.13;;;5.10;76.80;;;;;;5033986;28;20297;-79
2023/03/18 02:27:20;;;;;;;2.33;2.13;;;5.10;77.00;;;;;;5032744;28;20324;-79
2023/03/18 02:29:49;;;;;;;2.55;2.03;;;5.10;77.00;;;;;;5033919;28;20337;-79
2023/03/18 02:32:19;;;;;;;4.28;3.00;;;5.10;77.20;;;;;;5033930;28;20289;-79
2023/03/18 02:34:48;;;;;;;3.45;2.78;;;5.00;77.20;;;;;;5033754;28;20206;-79
2023/03/18 02:37:16;;;;;;;2.42;2.22;;;5.10;78.30;;;;;;5033182;28;20202;-79
2023/03/18 02:39:44;;;;;;;9.30;3.15;;;5.00;77.50;;;;;;5032202;28;20256;-79
2023/03/18 02:42:13;;;;;;;2.25;2.00;;;5.00;78.30;;;;;;5033220;28;20230;-79
2023/03/18 02:44:45;;;;;;;2.63;2.33;;;5.00;78.10;;;;;;5033581;28;20213;-79
2023/03/18 02:47:19;;;;;;;3.05;2.67;;;5.00;77.80;;;;;;5032845;28;20245;-79
2023/03/18 02:49:50;;;;;;;2.47;2.28;;;5.00;78.40;;;;;;5033621;28;20315;-79
2023/03/18 02:52:19;;;;;;;3.25;2.92;;;5.00;78.20;;;;;;5033401;28;20302;-79
2023/03/18 02:54:47;;;;;;;2.60;2.40;;;5.00;79.00;;;;;;5033269;28;20293;-79
2023/03/18 02:57:15;;;;;;;3.83;2.53;;;5.00;78.60;;;;;;5032993;28;20217;-85
2023/03/18 02:59:45;;;;;;;5.72;2.80;;;5.00;78.70;;;;;;5033385;28;20313;-85
2023/03/18 03:02:13;;;;;;;5.68;3.38;;;5.00;79.00;;;;;;5032895;28;20254;-85
2023/03/18 03:04:42;;;;;;;2.47;2.28;;;5.00;78.90;;;;;;5033246;28;20206;-85
2023/03/18 03:07:11;;;;;;;2.92;2.50;;;4.90;78.80;;;;;;5032617;28;20242;-85
2023/03/18 03:09:40;;;;;;;3.13;2.58;;;4.90;79.30;;;;;;5033459;28;20276;-85
2023/03/18 03:12:09;;;;;;;4.97;3.40;;;4.90;79.60;;;;;;5033038;28;20198;-85
2023/03/18 03:14:37;;;;;;;2.53;2.33;;;4.90;80.00;;;;;;5032922;28;20230;-85
2023/03/18 03:17:08;;;;;;;3.03;2.72;;;4.90;79.70;;;;;;5032515;28;20210;-85
2023/03/18 03:19:37;;;;;;;3.80;2.55;;;4.90;79.90;;;;;;5033482;28;20321;-85
2023/03/18 03:22:05;;;;;;;3.40;2.70;;;4.90;80.00;;;;;;5032860;28;20259;-84
2023/03/18 03:24:35;;;;;;;2.88;2.65;;;4.80;80.30;;;;;;5032798;28;20210;-85
2023/03/18 03:27:04;;;;;;;8.32;3.53;;;4.80;80.30;;;;;;5031929;28;20274;-85
2023/03/18 03:29:32;;;;;;;3.10;2.80;;;4.80;80.30;;;;;;5032797;28;20218;-85
2023/03/18 03:32:00;;;;;;;3.55;2.78;;;4.80;80.80;;;;;;5032518;28;20207;-85
2023/03/18 03:34:30;;;;;;;3.63;3.13;;;4.80;80.80;;;;;;5032961;28;20202;-85
2023/03/18 03:36:59;;;;;;;4.32;3.28;;;4.70;80.70;;;;;;5031657;28;20299;-85
2023/03/18 03:39:27;;;;;;;3.72;2.85;;;4.70;80.70;;;;;;5030898;28;20202;-85
2023/03/18 03:41:55;;;;;;;2.88;2.53;;;4.70;81.10;;;;;;5032581;28;20222;-85
2023/03/18 03:44:24;;;;;;;2.80;2.60;;;4.60;81.20;;;;;;5032592;28;20240;-85
2023/03/18 03:46:55;;;;;;;8.45;3.03;;;4.60;81.60;;;;;;5031917;28;20206;-85
2023/03/18 03:49:23;;;;;;;6.40;3.75;;;4.60;81.60;;;;;;5032407;28;20207;-85
2023/03/18 03:51:53;;;;;;;3.53;3.20;;;4.60;81.90;;;;;;5032808;28;20225;-86
2023/03/18 03:54:22;;;;;;;5.40;3.10;;;4.60;82.10;;;;;;5032496;28;20305;-85
2023/03/18 03:56:50;;;;;;;4.50;3.00;;;4.50;82.40;;;;;;5031845;28;20289;-85
2023/03/18 03:59:19;;;;;;;3.42;3.13;;;4.50;82.40;;;;;;5032204;28;20213;-85
2023/03/18 04:01:47;;;;;;;5.63;3.20;;;4.50;82.70;;;;;;5032234;28;20234;-86
2023/03/18 04:04:16;;;;;;;5.30;3.13;;;4.50;83.10;;;;;;5032643;28;20237;-86
2023/03/18 04:06:45;;;;;;;4.50;2.80;;;4.50;82.90;;;;;;5031806;28;20272;-83
2023/03/18 04:09:16;;;;;;;4.20;2.65;;;4.50;83.20;;;;;;5032322;28;20221;-85
2023/03/18 04:11:45;;;;;;;3.00;2.70;;;4.50;83.30;;;;;;5032624;28;20268;-79
2023/03/18 04:14:14;;;;;;;4.00;2.72;;;4.40;83.30;;;;;;5032567;28;20225;-79
2023/03/18 04:16:43;;;;;;;4.63;3.45;;;4.40;83.50;;;;;;5031937;28;20209;-79
2023/03/18 04:19:11;;;;;;;3.35;2.95;;;4.40;83.80;;;;;;5032596;28;20229;-79
2023/03/18 04:21:40;;;;;;;3.97;3.20;;;4.40;84.00;;;;;;5031739;28;20322;-79
2023/03/18 04:24:09;;;;;;;2.88;2.67;;;4.30;84.10;;;;;;5032319;28;20241;-79
2023/03/18 04:26:39;;;;;;;9.73;3.58;;;4.30;84.50;;;;;;5032269;28;20290;-79
2023/03/18 04:29:07;;;;;;;2.53;2.33;;;4.30;84.50;;;;;;5031992;28;20249;-79
2023/03/18 04:31:36;;;;;;;2.55;2.35;;;4.30;84.50;;;;;;5032045;28;20227;-79
2023/03/18 04:34:05;;;;;;;3.92;3.08;;;4.30;85.00;;;;;;5032108;28;20326;-80
2023/03/18 04:36:33;;;;;;;4.07;3.15;;;4.30;85.00;;;;;;5032082;28;20289;-80
2023/03/18 04:39:01;;;;;;;3.75;3.25;;;4.20;85.10;;;;;;5031585;28;20217;-79
2023/03/18 04:41:29;;;;;;;2.88;2.47;;;4.20;85.70;;;;;;5031844;28;20230;-80
2023/03/18 04:44:00;;;;;;;3.55;2.63;;;4.20;85.70;;;;;;5032411;28;20225;-80
2023/03/18 04:46:30;;;;;;;3.38;3.08;;;4.20;85.80;;;;;;5032398;28;20268;-80
2023/03/18 04:48:59;;;;;;;3.78;2.88;;;4.10;86.10;;;;;;5031967;28;20206;-79
2023/03/18 04:51:27;;;;;;;4.55;3.03;;;4.10;86.20;;;;;;5035497;28;20299;-80
2023/03/18 04:53:56;;;;;;;3.70;2.92;;;4.10;86.60;;;;;;5035919;28;20207;-79
2023/03/18 04:56:25;;;;;;;2.85;2.65;;;4.10;87.00;;;;;;5035807;28;20218;-85
2023/03/18 04:58:53;;;;;;;3.55;3.20;;;4.00;86.70;;;;;;5034816;28;20207;-85
2023/03/18 05:01:25;;;;;;;3.55;3.13;;;4.00;87.30;;;;;;5035273;28;20227;-86
2023/03/18 05:03:53;;;;;;;4.95;3.10;;;4.00;87.40;;;;;;5035201;28;20230;-85
2023/03/18 05:06:25;;;;;;;3.72;3.22;;;4.00;87.80;;;;;;5035585;28;20209;-85
2023/03/18 05:08:54;;;;;;;3.55;3.25;;;4.00;87.70;;;;;;5034954;28;20272;-86
2023/03/18 05:11:24;;;;;;;3.40;3.13;;;4.00;88.60;;;;;;5035291;28;20285;-85
2023/03/18 05:13:52;;;;;;;3.38;3.03;;;4.00;88.20;;;;;;5035161;28;20262;-85
2023/03/18 05:16:23;;;;;;;5.30;3.28;;;4.00;89.10;;;;;;5035103;28;20297;-85
2023/03/18 05:18:52;;;;;;;3.28;2.97;;;4.00;88.80;;;;;;5034779;28;20221;-85
2023/03/18 05:21:20;;;;;;;4.28;3.40;;;4.00;88.80;;;;;;5035408;28;20310;-85
2023/03/18 05:23:48;;;;;;;2.97;2.72;;;4.00;88.70;;;;;;5035042;28;20265;-85
2023/03/18 05:26:17;;;;;;;3.40;3.10;;;4.00;88.90;;;;;;5034863;28;20305;-85
2023/03/18 05:28:45;;;;;;;9.90;3.55;;;4.00;89.10;;;;;;5034554;28;20274;-84
2023/03/18 05:31:14;;;;;;;9.55;4.13;;;4.00;89.00;;;;;;5034249;28;20317;-85
2023/03/18 05:33:43;;;;;;;4.07;3.25;;;4.00;89.10;;;;;;5034778;28;20216;-85
2023/03/18 05:36:12;;;;;;;6.28;3.45;;;4.00;89.20;;;;;;5034804;28;20240;-86
2023/03/18 05:38:41;;;;;;;4.15;3.75;;;4.00;89.40;;;;;;5033199;28;20285;-84
2023/03/18 05:41:09;;;;;;;3.80;3.10;;;4.00;89.30;;;;;;5034584;28;20222;-85
2023/03/18 05:43:37;;;;;;;5.72;3.60;;;4.10;89.50;;;;;;5034204;28;20317;-85
2023/03/18 05:46:06;;;;;;;4.32;3.75;;;4.10;89.80;;;;;;5034777;28;20242;-85
2023/03/18 05:48:36;;;;;;;3.47;3.17;;;4.10;89.80;;;;;;5033890;28;20214;-85
2023/03/18 05:51:07;;;;;;;4.68;2.67;;;4.10;89.90;;;;;;5034484;28;20234;-85
2023/03/18 05:53:35;;;;;;;7.32;3.88;;;4.10;90.10;;;;;;5034493;28;20222;-85
2023/03/18 05:56:04;;;;;;;3.35;3.05;;;4.20;89.50;;;;;;5034724;28;20309;-85
2023/03/18 05:58:33;;;;;;;3.78;3.22;;;4.30;89.40;;;;;;5033641;28;20238;-86
2023/03/18 06:01:01;;;;;;;5.00;2.85;;;4.30;89.20;;;;;;5033604;28;20288;-85
2023/03/18 06:03:30;;;;;;;3.20;2.90;;;4.30;88.90;;;;;;5034047;28;20222;-85
2023/03/18 06:05:59;;;;;;;6.50;4.00;;;4.40;89.00;;;;;;5034150;28;20216;-85
2023/03/18 06:08:30;;;;;;;3.30;3.00;;;4.50;89.50;;;;;;5033798;28;20244;-85
2023/03/18 06:10:59;;;;;;;3.42;3.13;;;4.50;88.30;;;;;;5034226;28;20239;-85
2023/03/18 06:13:28;;;;;;;3.45;3.15;;;4.60;89.80;;;;;;5034258;28;20214;-85
2023/03/18 06:15:58;;;;;;;4.13;3.72;;;4.60;88.30;;;;;;5034107;28;20274;-85
2023/03/18 06:18:27;;;;;;;4.25;3.83;;;4.60;88.00;;;;;;5033371;28;20229;-85
2023/03/18 06:20:56;;;;;;;4.35;3.17;;;4.60;88.30;;;;;;5034074;28;20312;-85
2023/03/18 06:23:24;;;;;;;9.35;4.18;;;4.70;88.20;;;;;;5033660;28;20218;-85
2023/03/18 06:25:55;;;;;;;4.10;3.75;;;4.70;88.10;;;;;;5033830;28;20241;-84
2023/03/18 06:28:25;;;;;;;4.15;3.75;;;4.70;87.80;;;;;;5033251;28;20220;-85
2023/03/18 06:30:56;;;;;;;3.50;3.20;;;4.80;88.00;;;;;;5034264;28;20257;-86
2023/03/18 06:33:25;;;;;;;4.15;3.60;;;4.80;88.00;;;;;;5033439;28;20230;-86
2023/03/18 06:35:54;;;;;;;4.40;3.35;;;4.90;87.90;;;;;;5033949;28;20206;-85
2023/03/18 06:38:23;;;;;;;3.53;3.22;;;4.90;88.10;;;;;;5033259;28;20214;-85
2023/03/18 06:40:52;;;;;;;3.15;2.72;;;4.90;87.50;;;;;;5032478;28;20222;-85
2023/03/18 06:43:21;;;;;;;6.85;3.80;;;5.00;87.60;;;;;;5033400;28;20229;-85
2023/03/18 06:45:50;;;;;;;3.53;3.13;;;5.00;87.20;;;;;;5033748;28;20305;-85
2023/03/18 06:48:19;;;;;;;3.53;3.22;;;5.00;86.90;;;;;;5033046;28;20266;-85
2023/03/18 06:50:48;;;;;;;3.63;3.00;;;5.00;87.00;;;;;;5033182;28;20253;-80
2023/03/18 06:53:16;;;;;;;4.50;3.17;;;5.00;87.00;;;;;;5033229;28;20206;-79
2023/03/18 06:55:48;;;;;;;4.70;3.92;;;5.00;87.10;;;;;;5033322;28;20207;-79
2023/03/18 06:58:16;;;;;;;4.00;3.70;;;5.00;86.70;;;;;;5033076;28;20233;-85
2023/03/18 07:00:47;;;;;;;3.28;2.97;;;5.10;86.60;;;;;;5033284;28;20322;-85
2023/03/18 07:03:16;;;;;;;4.03;3.38;;;5.10;86.80;;;;;;5033025;28;20245;-85
2023/03/18 07:05:44;;;;;;;3.58;3.28;;;5.10;87.00;;;;;;5032730;28;20214;-85
2023/03/18 07:08:14;;;;;;;3.60;3.15;;;5.20;88.50;;;;;;5032908;28;20222;-85
2023/03/18 07:10:43;;;;;;;4.95;3.55;;;5.30;87.00;;;;;;5033381;28;20316;-85
2023/03/18 07:13:12;;;;;;;3.85;3.13;;;5.40;86.90;;;;;;5032838;28;20293;-85
2023/03/18 07:15:41;;;;;;;3.45;3.15;;;5.50;86.40;;;;;;5033442;28;20301;-85
2023/03/18 07:18:13;;;;;;;4.22;3.35;;;5.60;86.20;;;;;;5032273;28;20210;-85
2023/03/18 07:20:42;;;;;;;5.20;4.25;;;5.60;85.70;;;;;;5033290;28;20250;-86
2023/03/18 07:23:10;;;;;;;3.28;2.97;;;5.60;85.50;;;;;;5033000;28;20276;-86
2023/03/18 07:25:39;;;;;;;4.00;3.30;;;5.80;85.10;;;;;;5033052;28;20265;-85
2023/03/18 07:28:07;;;;;;;4.93;3.95;;;5.80;84.80;;;;;;5032513;28;20202;-85
2023/03/18 07:30:35;;;;;;;6.13;3.47;;;5.90;84.90;;;;;;5032535;28;20250;-85
2023/03/18 07:33:07;;;;;;;3.45;3.15;;;6.00;84.70;;;;;;5032585;28;20293;-86
2023/03/18 07:35:39;;;;;;;4.47;3.38;;;6.00;84.70;;;;;;5032778;28;20294;-85
2023/03/18 07:38:08;;;;;;;6.53;3.60;;;6.20;84.10;;;;;;5032606;28;20285;-85
2023/03/18 07:40:36;;;;;;;4.22;3.53;;;6.30;83.80;;;;;;5031942;28;20231;-85
2023/03/18 07:43:05;;;;;;;5.60;3.92;;;6.30;83.90;;;;;;5032595;28;20276;-85
2023/03/18 07:45:34;;;;;;;4.78;3.53;;;6.50;83.70;;;;;;5032410;28;20270;-85
2023/03/18 07:48:02;;;;;;;5.63;3.40;;;6.60;83.10;;;;;;5032522;28;20202;-85
2023/03/18 07:50:31;;;;;;;4.43;3.47;;;6.70;82.50;;;;;;5032620;28;20230;-85
2023/03/18 07:53:01;;;;;;;5.78;3.58;;;6.70;82.30;;;;;;5032521;28;20293;-85
2023/03/18 07:55:29;;;;;;;12.60;4.10;;;6.80;82.60;;;;;;5032687;28;20238;-84
2023/03/18 07:57:58;;;;;;;5.82;3.88;;;6.80;81.80;;;;;;5031706;28;20214;-85
2023/03/18 08:00:26;;;;;;;4.10;3.70;;;6.90;82.00;;;;;;5032536;28;20258;-85
2023/03/18 08:02:55;;;;;;;3.75;3.45;;;6.90;82.00;;;;;;5032563;28;20206;-84
2023/03/18 08:05:24;;;;;;;3.35;3.05;;;7.10;82.10;;;;;;5031791;28;20226;-85
2023/03/18 08:07:52;;;;;;;3.20;3.00;;;7.20;81.60;;;;;;5031677;28;20210;-85
2023/03/18 08:10:22;;;;;;;3.55;3.22;;;7.40;80.90;;;;;;5032075;28;20317;-85
2023/03/18 08:12:51;;;;;;;4.82;4.35;;;7.50;80.50;;;;;;5032338;28;20233;-84
2023/03/18 08:15:21;;;;;;;3.80;3.38;;;7.60;80.50;;;;;;5032704;28;20233;-79
2023/03/18 08:17:52;;;;;;;5.22;3.90;;;7.70;80.50;;;;;;5031007;28;20244;-79
2023/03/18 08:20:21;;;;;;;5.25;4.25;;;7.80;80.10;;;;;;5031996;28;20230;-79
2023/03/18 08:22:50;;;;;;;3.78;3.40;;;7.90;80.10;;;;;;5032109;28;20289;-78
2023/03/18 08:25:23;;;;;;;4.20;3.78;;;8.00;79.70;;;;;;5035144;28;20333;-85
2023/03/18 08:27:52;;;;;;;4.30;3.28;;;8.10;79.30;;;;;;5035427;28;20206;-85
2023/03/18 08:30:24;;;;;;;5.90;4.13;;;8.20;78.70;;;;;;5036099;28;20318;-85
2023/03/18 08:32:52;;;;;;;3.33;3.10;;;8.30;78.50;;;;;;5036308;28;20231;-85
2023/03/18 08:35:22;;;;;;;5.32;3.67;;;8.50;78.40;;;;;;5035747;28;20279;-85
2023/03/18 08:37:51;;;;;;;4.38;3.92;;;8.50;77.80;;;;;;5035530;28;20232;-86
2023/03/18 08:40:19;;;;;;;3.90;3.50;;;8.60;77.60;;;;;;5035522;28;20322;-84
2023/03/18 08:42:49;;;;;;;3.60;3.30;;;8.70;78.40;;;;;;5035556;28;20210;-85
2023/03/18 08:45:18;;;;;;;4.90;3.88;;;8.80;77.00;;;;;;5035773;28;20226;-79
2023/03/18 08:47:47;;;;;;;6.43;3.88;;;8.90;77.10;;;;;;5035173;28;20226;-79
2023/03/18 08:50:15;;;;;;;9.35;4.68;;;8.90;76.70;;;;;;5035478;28;20332;-79
2023/03/18 08:52:43;;;;;;;6.88;3.95;;;9.00;76.90;;;;;;5035842;28;20237;-79
2023/03/18 08:55:12;;;;;;;4.43;4.03;;;9.00;76.50;;;;;;5035647;28;20203;-79
2023/03/18 08:57:41;;;;;;;6.18;3.90;;;9.20;76.80;;;;;;5035177;28;20214;-79
2023/03/18 09:00:12;;;;;;;;;;;9.30;76.20;;;;;;5035905;28;20157;-79
2023/03/18 09:02:40;;;;;;;;;;;9.50;75.90;;;;;;5035989;28;20060;-79
2023/03/18 09:05:09;;;;;;;;;;;9.60;75.10;;;;;;5035116;28;19956;-86
2023/03/18 09:07:37;;;;;;;;;;;9.80;74.70;;;;;;5035047;28;20034;-85
2023/03/18 09:10:05;;;;;;;;;;;10.10;73.10;;;;;;5035606;28;19959;-85
2023/03/18 09:12:34;;;;;;;;;;;10.30;72.70;;;;;;5036083;28;19928;-85
2023/03/18 09:15:03;;;;;;;;;;;10.50;72.60;;;;;;5035666;28;19964;-85
2023/03/18 09:17:32;;;;;;;;;;;10.80;71.90;;;;;;5034813;28;20058;-85
2023/03/18 09:20:21;;;;;;;;;;;11.00;71.10;;;;;;5035264;28;19988;-85
2023/03/18 09:22:50;;;;;;;;;;;11.20;70.50;;;;;;5035800;28;20036;-85
2023/03/18 09:25:19;;;;;;;;;;;11.10;68.90;;;;;;5035451;28;19959;-85
2023/03/18 09:27:47;;;;;;;;;;;11.00;69.20;;;;;;5035142;28;19983;-85
2023/03/18 09:30:15;;;;;;;;;;;11.20;69.50;;;;;;5035228;28;19921;-86
2023/03/18 09:32:45;;;;;;;;;;;11.60;69.60;;;;;;5035109;28;19959;-86
2023/03/18 09:35:13;;;;;;;;;;;11.90;68.20;;;;;;5034408;28;19970;-86
2023/03/18 09:37:43;;;;;;;;;;;12.20;66.90;;;;;;5034429;28;20010;-86
2023/03/18 09:40:16;;;;;;;;;;;12.40;66.60;;;;;;5034424;28;19928;-86
2023/03/18 09:42:49;;;;;;;;;;;12.60;65.70;;;;;;5034993;28;19925;-86
2023/03/18 09:45:20;;;;;;;;;;;12.90;66.30;;;;;;5035032;28;20007;-86
2023/03/18 09:47:58;;;;;;;;;;;13.60;65.40;;;;;;5034508;28;19995;-86
2023/03/18 09:50:30;;;;;;;;;;;14.30;64.00;;;;;;5035657;28;19925;-86
2023/03/18 09:53:05;;;;;;;;;;;14.50;62.80;;;;;;5034776;28;19944;-86
2023/03/18 09:55:38;;;;;;;;;;;14.40;61.90;;;;;;5035091;28;19940;-86
2023/03/18 09:58:09;;;;;;;;;;;14.40;62.50;;;;;;5034623;28;19963;-86
2023/03/18 10:00:38;;;;;;;;;;;14.40;62.10;;;;;;5035231;28;19958;-85
2023/03/18 10:03:13;;;;;;;;;;;14.50;60.90;;;;;;5035019;28;19941;-86
2023/03/18 10:05:44;;;;;;;;;;;14.40;59.80;;;;;;5034103;28;20000;-85
2023/03/18 10:08:15;;;;;;;;;;;14.60;59.40;;;;;;5033959;28;20008;-85
2023/03/18 10:10:45;;;;;;;;;;;14.70;59.00;;;;;;5034364;28;19971;-85
2023/03/18 10:13:17;;;;;;;;;;;14.80;59.30;;;;;;5035120;28;20012;-84
2023/03/18 10:15:47;;;;;;;;;;;14.90;59.90;;;;;;5034678;28;19979;-84
2023/03/18 10:18:21;;;;;;;;;;;15.30;58.40;;;;;;5033855;28;19927;-85
2023/03/18 10:20:55;;;;;;;;;;;15.00;58.10;;;;;;5034311;28;19959;-85
2023/03/18 10:23:27;;;;;;;;;;;14.80;58.00;;;;;;5034387;28;19947;-85
2023/03/18 10:25:58;;;;;;;;;;;14.80;58.30;;;;;;5034432;28;20011;-85
2023/03/18 10:28:41;;;;;;;;;;;14.90;57.90;;;;;;5033934;28;19945;-85
2023/03/18 10:31:14;;;;;;;;;;;15.20;58.10;;;;;;5034398;28;19959;-85
2023/03/18 10:33:46;;;;;;;;;;;15.40;57.50;;;;;;5034219;28;19928;-84
2023/03/18 10:36:18;;;;;;;;;;;15.50;58.00;;;;;;5033876;28;19996;-84
2023/03/18 10:38:48;;;;;;;;;;;15.40;57.30;;;;;;5033670;28;19942;-84
2023/03/18 10:41:18;;;;;;;;;;;15.60;57.50;;;;;;5034112;28;19985;-85
2023/03/18 10:43:49;;;;;;;;;;;15.80;57.20;;;;;;5034683;28;19946;-85
2023/03/18 10:46:19;;;;;;;;;;;16.00;57.20;;;;;;5033543;28;19959;-85
2023/03/18 10:48:51;;;;;;;;;;;16.00;57.40;;;;;;5033258;28;19939;-85
2023/03/18 10:51:21;;;;;;;;;;;16.10;57.80;;;;;;5033626;28;20054;-85
2023/03/18 10:53:55;;;;;;;;;;;16.50;57.30;;;;;;5033821;28;20034;-85
2023/03/18 10:56:24;;;;;;;;;;;16.50;56.80;;;;;;5033869;28;19946;-85
2023/03/18 10:58:52;;;;;;;;;;;16.60;56.50;;;;;;5033074;28;20013;-85
2023/03/18 11:01:23;;;;;;;;;;;16.60;56.30;;;;;;5033991;28;20031;-85
2023/03/18 11:03:58;;;;;;;;;;;16.70;56.90;;;;;;5033540;28;19953;-84
2023/03/18 11:06:30;;;;;;;;;;;16.90;55.90;;;;;;5033121;28;19980;-85
2023/03/18 11:09:05;;;;;;;;;;;17.10;55.80;;;;;;5033252;28;19954;-85
2023/03/18 11:11:33;;;;;;;;;;;17.40;55.70;;;;;;5033967;28;20001;-85
2023/03/18 11:14:02;;;;;;;;;;;17.70;55.10;;;;;;5033388;28;19948;-85
2023/03/18 11:16:36;;;;;;;;;;;18.00;54.50;;;;;;5033136;28;20041;-85
2023/03/18 11:19:21;;;;;;;;;;;18.20;54.00;;;;;;5033286;28;19943;-85
2023/03/18 11:21:49;;;;;;;;;;;18.20;53.90;;;;;;5033477;28;20016;-85
2023/03/18 11:24:34;;;;;;;;;;;18.20;53.60;;;;;;5033317;28;19944;-84
2023/03/18 11:27:03;;;;;;;;;;;18.10;53.30;;;;;;5032537;28;20016;-84
2023/03/18 11:29:32;;;;;;;;;;;18.10;54.10;;;;;;5033496;28;20042;-85
2023/03/18 11:32:01;;;;;;;;;;;18.10;53.30;;;;;;5033268;28;19964;-84
2023/03/18 11:34:33;;;;;;;;;;;18.00;53.60;;;;;;5033216;28;19971;-85
2023/03/18 11:37:03;;;;;;;;;;;17.80;53.90;;;;;;5032581;28;19921;-85
2023/03/18 11:39:32;;;;;;;;;;;17.90;53.30;;;;;;5032154;28;19960;-85
2023/03/18 11:42:01;;;;;;;;;;;17.80;53.60;;;;;;5032716;28;19939;-78
2023/03/18 11:44:30;;;;;;;;;;;18.20;53.30;;;;;;5033015;28;19991;-78
2023/03/18 11:47:05;;;;;;;;;;;18.20;52.90;;;;;;5032295;28;20003;-78
2023/03/18 11:49:34;;;;;;;;;;;18.20;54.20;;;;;;5032609;28;19946;-78
2023/03/18 11:52:07;;;;;;;;;;;18.60;52.90;;;;;;5032969;28;19953;-78
2023/03/18 11:54:47;;;;;;;;;;;18.70;52.50;;;;;;5033054;28;20044;-78
2023/03/18 11:57:18;;;;;;;;;;;18.80;52.30;;;;;;5032288;28;19953;-78
2023/03/18 11:59:50;;;;;;;;;;;18.70;52.20;;;;;;5035232;28;19925;-78
2023/03/18 12:02:33;;;;;;;;;;;18.70;52.20;;;;;;5037313;28;20036;-78
2023/03/18 12:05:15;;;;;;;;;;;18.50;52.50;;;;;;5036029;28;19989;-78
2023/03/18 12:08:00;;;;;;;;;;;18.70;52.50;;;;;;5035882;28;20058;-85
2023/03/18 12:10:32;;;;;;;;;;;18.90;52.00;;;;;;5036857;28;19962;-84
2023/03/18 12:13:19;;;;;;;;;;;19.20;52.30;;;;;;5036966;28;19939;-85
2023/03/18 12:15:51;;;;;;;;;;;19.70;51.80;;;;;;5036714;28;20003;-84
2023/03/18 12:18:32;;;;;;;;;;;19.60;50.90;;;;;;5036075;28;19996;-84
2023/03/18 12:21:02;;;;;;;;;;;19.50;51.60;;;;;;5036571;28;19969;-86
2023/03/18 12:23:42;;;;;;;;;;;19.40;51.60;;;;;;5036966;28;19994;-86
2023/03/18 12:26:13;;;;;;;;;;;19.70;51.20;;;;;;5036459;28;20001;-85
2023/03/18 12:28:48;;;;;;;;;;;19.90;51.10;;;;;;5035733;28;20017;-84
2023/03/18 12:31:35;;;;;;;;;;;19.70;50.90;;;;;;5036429;28;19964;-78
2023/03/18 12:34:04;;;;;;;;;;;19.80;50.50;;;;;;5036513;28;19948;-78
2023/03/18 12:36:38;;;;;;;;;;;19.70;50.90;;;;;;5035792;28;20005;-78
2023/03/18 12:39:25;;;;;;;;;;;19.90;51.10;;;;;;5035163;28;19980;-78
2023/03/18 12:42:00;;;;;;;;;;;20.00;50.40;;;;;;5036789;28;19941;-78
2023/03/18 12:44:38;;;;;;;;;;;19.80;50.30;;;;;;5036122;28;19929;-78
2023/03/18 12:47:08;;;;;;;;;;;20.00;50.40;;;;;;5035564;28;19968;-78
2023/03/18 12:49:39;;;;;;;;;;;19.70;49.10;;;;;;5036378;28;19989;-85
2023/03/18 12:52:11;;;;;;;;;;;19.60;49.80;;;;;;5036364;28;19939;-85
2023/03/18 12:54:40;;;;;;;;;;;19.70;50.80;;;;;;5036424;28;19949;-85
2023/03/18 12:57:12;;;;;;;;;;;20.00;50.10;;;;;;5035570;28;20005;-85
2023/03/18 12:59:42;;;;;;;;;;;20.00;48.70;;;;;;5036054;28;19989;-85
2023/03/18 13:02:19;;;;;;;;;;;19.80;49.20;;;;;;5035816;28;19945;-85
2023/03/18 13:04:50;;;;;;;;;;;19.60;49.30;;;;;;5036357;28;19942;-85
2023/03/18 13:07:26;;;;;;;;;;;19.70;49.50;;;;;;5035253;28;19958;-85
2023/03/18 13:09:57;;;;;;;;;;;19.90;49.20;;;;;;5035429;28;20011;-85
2023/03/18 13:12:28;;;;;;;;;;;20.10;48.60;;;;;;5036259;28;19945;-85
2023/03/18 13:14:59;;;;;;;;;;;20.10;48.30;;;;;;5035908;28;20045;-85
2023/03/18 13:17:30;;;;;;;;;;;20.20;49.00;;;;;;5035420;28;19987;-85
2023/03/18 13:19:59;;;;;;;;;;;20.00;48.10;;;;;;5035787;28;19959;-85
2023/03/18 13:22:45;;;;;;;;;;;19.80;48.50;;;;;;5035660;28;19964;-85
2023/03/18 13:25:18;;;;;;;;;;;20.00;48.20;;;;;;5035756;28;19962;-85
2023/03/18 13:27:53;;;;;;;;;;;19.70;47.40;;;;;;5034775;28;19921;-85
2023/03/18 13:30:27;;;;;;;;;;;19.40;48.00;;;;;;5035446;28;19975;-85
2023/03/18 13:33:11;;;;;;;;;;;19.20;47.90;;;;;;5035371;28;19921;-85
2023/03/18 13:35:54;;;;;;;;;;;19.10;47.90;;;;;;5035184;28;19975;-85
2023/03/18 13:38:42;;;;;;;;;;;19.10;47.60;;;;;;5034355;28;19920;-85
2023/03/18 13:41:24;;;;;;;;;;;19.10;47.80;;;;;;5035116;28;19975;-85